Архив погоды в Смидовиче

Метеограмма Смидович
Вторник, 25 Июня
Время местн. Темп Ветер Видим Явления Облачность нижн/средн/верх Атм. давл. Влжн Точка росы ВНГО R Сост. почвы Tg s
Напр Скр Прв ур.ст ур.м изм
04:00 +20.4° Ю 3 - 20 км - облачно 750 755 -0.8 77% +16.2° 1 км - - - -
01:00 +22.1° Ю 3 - 20 км - облачно 751 755 -0.3 71% +16.6° 1 км - - - -
Понедельник, 24 Июня
Время местн. Темп Ветер Видим Явления Облачность нижн/средн/верх Атм. давл. Влжн Точка росы ВНГО R Сост. почвы Tg s
Напр Скр Прв ур.ст ур.м изм
22:00 +23.2° Ю 3 - 20 км - переменная облачность 751 756 +0.1 68% +16.9° более 2.5 км - - - -
19:00 +24.5° Ю 2 - 20 км - переменная облачность 751 756 -0.5 62% +16.7° 1 км 0 - - -
16:00 +27.5° Ю 4 - 20 км - облачно 752 756 -1.1 48% +15.4° 1 км - - - -
13:00 +26.8° Ю,Ю-З 3 - 20 км - переменная облачность 753 757 -0.5 51% +15.8° более 2.5 км - - - -
10:00 +24.4° Ю,Ю-З 2 - 20 км - облачно 753 758 +0.1 63% +16.8° более 2.5 км - - - -
07:00 +18.5° В,Ю-В 1 - 20 км - переменная облачность 753 758 +0.4 93% +17.3° более 2.5 км 0 Влажная (без луж) +17° -
04:00 +18.3° С 1 - 20 км - облачно с прояснениями 753 758 +0.2 94% +17.3° более 2.5 км - - - -
01:00 +19.1° штиль 0 - 20 км - облачно 753 757 +0.1 94% +18.1° более 2.5 км - - - -
Воскресенье, 23 Июня
Время местн. Темп Ветер Видим Явления Облачность нижн/средн/верх Атм. давл. Влжн Точка росы ВНГО R Сост. почвы Tg s
Напр Скр Прв ур.ст ур.м изм
22:00 +19.9° штиль 0 - 20 км - облачно с прояснениями 753 757 +0.7 91% +18.4° - - - - -
19:00 +24.6° Ю 1 - 20 км - переменная облачность 752 756 -0.2 60% +16.4° - 0 - - -
16:00 +25.7° Ю 2 - 20 км - переменная облачность 752 757 -0.8 53% +15.4° более 2.5 км - - - -
13:00 +24.7° Ю-В 1 - 20 км - переменная облачность 753 758 -0.3 61% +16.8° - - - - -
10:00 +22.9° Ю 1 - 20 км - переменная облачность 754 758 +0.2 67% +16.4° более 2.5 км - - - -
07:00 +17.1° С-З 1 - 20 км - ясно 753 758 +0.8 94% +16.2° более 2.5 км 0 Сырая (есть малые или большие лужи) - -
04:00 +13.7° З,Ю-З 1 - 20 км - переменная облачность 753 757 -0.3 94% +12.8° более 2.5 км - - - -
01:00 +14.6° Ю-З 1 - 20 км - ясно 753 757 +0.3 94% +13.7° более 2.5 км - - - -
Суббота, 22 Июня
Время местн. Темп Ветер Видим Явления Облачность нижн/средн/верх Атм. давл. Влжн Точка росы ВНГО R Сост. почвы Tg s
Напр Скр Прв ур.ст ур.м изм
22:00 +17.2° штиль 0 - 20 км - ясно 753 757 +0.8 91% +15.8° более 2.5 км - - - -
19:00 +26.1° С-З 1 - 20 км - ясно 752 756 -0.4 43% +12.6° более 2.5 км 0 - - -
16:00 +25.1° Ю-В 2 - 20 км - переменная облачность 752 757 -1.1 48% +13.4° 1 км - - - -
13:00 +24.5° С-В 2 - 20 км - ясно 753 758 -0.4 51% +13.7° более 2.5 км - - - -
10:00 +21.1° С,С-В 3 - 20 км - ясно 754 758 +0.5 62% +13.6° более 2.5 км - - - -
07:00 +16.7° С,С-В 2 - 20 км - ясно 753 758 +0.4 80% +13.2° более 2.5 км 0 Сырая (есть малые или большие лужи) +13° -
04:00 +14.4° С 2 - 20 км - переменная облачность 753 757 0 92% +13.2° - - - - -
01:00 +14.7° В 1 - 20 км - переменная облачность 753 757 +0.2 87% +12.6° - - - - -